createdAt,value
2023-05-20T00:02:01.014Z,4.33
2023-05-20T00:05:04.455Z,4.20
2023-05-20T00:08:09.690Z,4.13
2023-05-20T00:11:12.750Z,4.03
2023-05-20T00:14:14.787Z,4.40
2023-05-20T00:17:16.826Z,4.20
2023-05-20T00:20:18.753Z,4.10
2023-05-20T00:23:21.320Z,4.53
2023-05-20T00:26:23.163Z,3.60
2023-05-20T00:29:25.233Z,4.10
2023-05-20T00:32:27.274Z,3.73
2023-05-20T00:35:29.804Z,4.30
2023-05-20T00:38:31.739Z,4.60
2023-05-20T00:41:33.764Z,4.80
2023-05-20T00:44:35.747Z,5.27
2023-05-20T00:47:39.569Z,5.63
2023-05-20T00:50:41.577Z,4.87
2023-05-20T00:53:43.997Z,5.20
2023-05-20T00:56:46.263Z,4.60
2023-05-20T00:59:48.424Z,4.33
2023-05-20T01:02:50.627Z,4.33
2023-05-20T01:05:52.969Z,4.77
2023-05-20T01:08:55.057Z,4.63
2023-05-20T01:12:00.413Z,4.30
2023-05-20T01:15:07.118Z,4.23
2023-05-20T01:18:10.978Z,3.97
2023-05-20T01:21:14.418Z,4.50
2023-05-20T01:24:16.738Z,4.47
2023-05-20T01:27:20.838Z,4.37
2023-05-20T01:30:23.446Z,3.60
2023-05-20T01:33:26.832Z,3.80
2023-05-20T01:36:29.919Z,4.40
2023-05-20T01:39:35.450Z,4.30
2023-05-20T01:42:37.825Z,4.30
2023-05-20T01:45:42.417Z,3.93
2023-05-20T01:48:44.664Z,4.50
2023-05-20T01:51:46.661Z,4.17
2023-05-20T01:54:51.715Z,4.03
2023-05-20T01:57:53.754Z,3.77
2023-05-20T02:00:56.323Z,3.90
2023-05-20T02:03:58.243Z,3.90
2023-05-20T02:07:00.310Z,4.10
2023-05-20T02:10:02.264Z,3.93
2023-05-20T02:13:04.396Z,3.57
2023-05-20T02:16:06.498Z,3.57
2023-05-20T02:19:13.330Z,3.30
2023-05-20T02:22:15.805Z,3.43
2023-05-20T02:25:17.812Z,3.23
2023-05-20T02:28:19.970Z,3.60
2023-05-20T02:31:22.316Z,3.70
2023-05-20T02:34:26.349Z,3.37
2023-05-20T02:37:29.359Z,3.60
2023-05-20T02:40:31.965Z,3.30
2023-05-20T02:43:34.264Z,3.33
2023-05-20T02:46:36.721Z,2.97
2023-05-20T02:49:38.741Z,3.57
2023-05-20T02:52:42.787Z,3.03
2023-05-20T02:55:47.736Z,3.20
2023-05-20T02:58:49.737Z,3.13
2023-05-20T03:01:52.869Z,3.10
2023-05-20T03:04:55.329Z,3.13
2023-05-20T03:07:57.612Z,3.63
2023-05-20T03:10:59.690Z,3.20
2023-05-20T03:14:01.938Z,3.20
2023-05-20T03:17:03.883Z,3.20
2023-05-20T03:20:07.893Z,3.43
2023-05-20T03:23:10.114Z,3.57
2023-05-20T03:26:12.143Z,3.37
2023-05-20T03:29:14.083Z,3.00
2023-05-20T03:32:16.079Z,3.10
2023-05-20T03:35:18.170Z,3.30
2023-05-20T03:38:20.136Z,5.57
2023-05-20T03:41:22.524Z,4.27
2023-05-20T03:44:24.558Z,4.87
2023-05-20T03:47:27.552Z,5.10
2023-05-20T03:50:31.792Z,4.70
2023-05-20T03:53:33.667Z,4.57
2023-05-20T03:56:36.645Z,4.87
2023-05-20T03:59:39.330Z,5.07
2023-05-20T04:02:41.988Z,4.80
2023-05-20T04:05:44.003Z,4.10
2023-05-20T04:08:46.094Z,2.83
2023-05-20T04:11:48.707Z,3.40
2023-05-20T04:14:52.861Z,3.63
2023-05-20T04:17:55.207Z,4.27
2023-05-20T04:20:57.171Z,4.90
2023-05-20T04:23:59.970Z,5.53
2023-05-20T04:27:02.677Z,5.17
2023-05-20T04:30:06.009Z,6.37
2023-05-20T04:33:08.411Z,5.33
2023-05-20T04:36:12.422Z,3.87
2023-05-20T04:39:15.898Z,4.57
2023-05-20T04:42:18.946Z,5.50
2023-05-20T04:45:21.008Z,5.40
2023-05-20T04:48:23.254Z,5.10
2023-05-20T04:51:25.173Z,4.23
2023-05-20T04:54:27.262Z,5.17
2023-05-20T04:57:29.232Z,5.00
2023-05-20T05:00:31.161Z,3.70
2023-05-20T05:03:35.176Z,4.03
2023-05-20T05:06:38.531Z,4.03
2023-05-20T05:09:40.588Z,3.23
2023-05-20T05:12:42.526Z,3.10
2023-05-20T05:15:44.561Z,3.30
2023-05-20T05:18:46.540Z,3.03
2023-05-20T05:21:48.495Z,2.57
2023-05-20T05:24:50.936Z,2.27
2023-05-20T05:27:53.329Z,1.90
2023-05-20T05:30:58.850Z,2.10
2023-05-20T05:34:00.914Z,2.00
2023-05-20T05:37:02.904Z,2.70
2023-05-20T05:40:05.290Z,2.80
2023-05-20T05:43:07.330Z,2.93
2023-05-20T05:46:10.537Z,3.17
2023-05-20T05:49:12.475Z,3.20
2023-05-20T05:52:14.524Z,3.00
2023-05-20T05:55:18.518Z,3.10
2023-05-20T05:58:21.117Z,2.77
2023-05-20T06:01:23.090Z,2.20
2023-05-20T06:04:25.216Z,2.70
2023-05-20T06:07:27.160Z,2.97
2023-05-20T06:10:29.405Z,3.53
2023-05-20T06:13:31.360Z,2.90
2023-05-20T06:16:34.021Z,2.90
2023-05-20T06:19:35.983Z,2.83
2023-05-20T06:22:37.953Z,3.00
2023-05-20T06:25:39.852Z,2.80
2023-05-20T06:28:41.777Z,2.87
2023-05-20T06:31:44.197Z,2.50
2023-05-20T06:34:46.454Z,2.50
2023-05-20T06:37:48.828Z,2.50
2023-05-20T06:40:51.442Z,2.60
2023-05-20T06:43:53.598Z,2.20
2023-05-20T06:46:56.127Z,2.47
2023-05-20T06:49:58.088Z,2.43
2023-05-20T06:53:00.163Z,2.30
2023-05-20T06:56:02.336Z,2.47
2023-05-20T06:59:04.289Z,2.00
2023-05-20T07:02:06.744Z,2.23
2023-05-20T07:05:09.903Z,2.00
2023-05-20T07:08:12.214Z,2.00
2023-05-20T07:11:14.170Z,2.07
2023-05-20T07:14:16.144Z,2.07
2023-05-20T07:17:18.720Z,1.93
2023-05-20T07:20:20.877Z,2.10
2023-05-20T07:23:24.499Z,2.17
2023-05-20T07:26:28.006Z,1.90
2023-05-20T07:29:29.934Z,2.03
2023-05-20T07:32:32.089Z,2.13
2023-05-20T07:35:34.338Z,2.47
2023-05-20T07:38:38.564Z,2.20
2023-05-20T07:41:42.089Z,2.60
2023-05-20T07:44:44.857Z,2.07
2023-05-20T07:47:46.826Z,1.87
2023-05-20T07:50:48.943Z,2.40
2023-05-20T07:53:50.935Z,2.40
2023-05-20T07:56:52.962Z,2.30
2023-05-20T07:59:54.945Z,2.72
2023-05-20T08:02:57.165Z,2.53
2023-05-20T08:05:59.454Z,2.38
2023-05-20T08:09:03.851Z,2.15
2023-05-20T08:12:06.412Z,2.70
2023-05-20T08:15:09.354Z,2.25
2023-05-20T08:18:11.428Z,2.50
2023-05-20T08:21:14.427Z,2.47
2023-05-20T08:24:16.371Z,2.33
2023-05-20T08:27:18.515Z,2.10
2023-05-20T08:30:20.443Z,2.33
2023-05-20T08:33:23.202Z,2.20
2023-05-20T08:36:26.074Z,2.13
2023-05-20T08:39:28.097Z,2.30
2023-05-20T08:42:30.220Z,2.10
2023-05-20T08:45:35.114Z,2.40
2023-05-20T08:48:37.401Z,2.28
2023-05-20T08:51:40.211Z,2.25
2023-05-20T08:54:46.801Z,2.22
2023-05-20T08:57:51.825Z,2.65
2023-05-20T09:00:53.804Z,2.75
2023-05-20T09:03:56.394Z,2.20
2023-05-20T09:06:58.353Z,2.30
2023-05-20T09:10:00.329Z,2.20
2023-05-20T09:13:04.466Z,2.03
2023-05-20T09:16:06.710Z,2.40
2023-05-20T09:19:10.348Z,2.17
2023-05-20T09:22:12.339Z,2.30
2023-05-20T09:25:14.532Z,2.30
2023-05-20T09:28:16.448Z,2.15
2023-05-20T09:31:19.112Z,2.03
2023-05-20T09:34:21.538Z,2.35
2023-05-20T09:37:26.085Z,2.47
2023-05-20T09:40:29.357Z,1.90
2023-05-20T09:43:31.799Z,2.05
2023-05-20T09:46:34.929Z,1.90
2023-05-20T09:49:38.900Z,2.35
2023-05-20T09:52:41.660Z,2.50
2023-05-20T09:55:44.058Z,2.40
2023-05-20T09:58:47.362Z,2.55
2023-05-20T10:01:49.739Z,2.38
2023-05-20T10:04:53.188Z,2.40
2023-05-20T10:08:17.503Z,3.05
2023-05-20T10:12:13.133Z,3.38
2023-05-20T10:15:18.862Z,4.00
2023-05-20T10:18:39.662Z,3.35
2023-05-20T10:21:41.800Z,2.65
2023-05-20T10:24:44.795Z,3.20
2023-05-20T10:27:47.967Z,3.80
2023-05-20T10:30:51.585Z,3.10
2023-05-20T10:33:54.551Z,3.05
2023-05-20T10:36:56.409Z,2.90
2023-05-20T10:40:12.606Z,3.38
2023-05-20T10:43:30.983Z,2.83
2023-05-20T10:46:48.762Z,3.00
2023-05-20T10:49:59.125Z,3.00
2023-05-20T10:53:18.603Z,3.15
2023-05-20T10:56:27.949Z,3.00
2023-05-20T10:59:30.633Z,3.50
2023-05-20T11:02:33.295Z,3.30
2023-05-20T11:05:36.049Z,3.72
2023-05-20T11:08:38.033Z,3.65
2023-05-20T11:11:40.908Z,3.65
2023-05-20T11:14:43.359Z,3.67
2023-05-20T11:18:02.033Z,3.58
2023-05-20T11:21:04.264Z,3.53
2023-05-20T11:24:07.865Z,3.10
2023-05-20T11:27:09.835Z,3.67
2023-05-20T11:30:17.668Z,3.25
2023-05-20T11:33:20.200Z,4.03
2023-05-20T11:36:27.912Z,3.80
2023-05-20T11:39:31.277Z,3.80
2023-05-20T11:42:33.967Z,3.42
2023-05-20T11:45:43.501Z,3.42
2023-05-20T11:48:53.409Z,3.45
2023-05-20T11:51:55.400Z,3.85
2023-05-20T11:54:57.358Z,3.60
2023-05-20T11:58:00.238Z,3.63
2023-05-20T12:01:13.998Z,3.60
2023-05-20T12:04:24.340Z,3.90
2023-05-20T12:07:27.157Z,3.25
2023-05-20T12:10:29.179Z,3.53
2023-05-20T12:13:33.120Z,3.38
2023-05-20T12:16:37.477Z,3.10
2023-05-20T12:19:40.551Z,3.30
2023-05-20T12:22:47.085Z,3.72
2023-05-20T12:25:50.263Z,3.65
2023-05-20T12:28:52.183Z,4.20
2023-05-20T12:31:54.225Z,3.60
2023-05-20T12:34:56.171Z,3.15
2023-05-20T12:37:58.215Z,3.33
2023-05-20T12:41:00.133Z,3.28
2023-05-20T12:44:03.092Z,3.10
2023-05-20T12:47:09.698Z,3.13
2023-05-20T12:50:11.903Z,3.35
2023-05-20T12:53:14.035Z,3.35
2023-05-20T12:56:15.947Z,3.33
2023-05-20T12:59:17.956Z,3.65
2023-05-20T13:02:20.257Z,3.50
2023-05-20T13:05:23.014Z,3.20
2023-05-20T13:08:26.555Z,4.53
2023-05-20T13:11:30.498Z,3.58
2023-05-20T13:14:32.504Z,4.28
2023-05-20T13:17:34.546Z,4.60
2023-05-20T13:20:37.790Z,4.38
2023-05-20T13:23:42.414Z,10.32
2023-05-20T13:26:44.441Z,3.28
2023-05-20T13:29:46.698Z,4.47
2023-05-20T13:32:48.771Z,3.10
2023-05-20T13:35:51.880Z,4.55
2023-05-20T13:38:54.455Z,4.00
2023-05-20T13:41:56.620Z,3.30
2023-05-20T13:44:58.572Z,3.17
2023-05-20T13:48:00.577Z,4.40
2023-05-20T13:51:02.578Z,3.08
2023-05-20T13:54:04.686Z,3.08
2023-05-20T13:57:08.280Z,3.17
2023-05-20T14:00:10.860Z,2.83
2023-05-20T14:03:14.161Z,3.17
2023-05-20T14:06:19.542Z,2.88
2023-05-20T14:09:21.774Z,3.50
2023-05-20T14:12:24.946Z,3.08
2023-05-20T14:15:30.650Z,2.90
2023-05-20T14:18:33.766Z,3.58
2023-05-20T14:21:40.263Z,3.33
2023-05-20T14:24:42.388Z,3.45
2023-05-20T14:27:44.587Z,3.40
2023-05-20T14:30:47.087Z,3.38
2023-05-20T14:33:49.671Z,3.05
2023-05-20T14:36:51.757Z,3.22
2023-05-20T14:39:57.062Z,2.80
2023-05-20T14:42:59.347Z,2.83
2023-05-20T14:46:02.268Z,3.03
2023-05-20T14:49:04.416Z,2.83
2023-05-20T14:52:07.844Z,3.15
2023-05-20T14:55:09.867Z,2.92
2023-05-20T14:58:11.981Z,3.03
2023-05-20T15:01:14.047Z,3.08
2023-05-20T15:04:16.655Z,3.15
2023-05-20T15:07:18.688Z,2.80
2023-05-20T15:10:20.664Z,3.15
2023-05-20T15:13:22.933Z,3.10
2023-05-20T15:16:25.495Z,3.15
2023-05-20T15:19:28.342Z,2.97
2023-05-20T15:22:30.436Z,2.90
2023-05-20T15:25:32.971Z,3.22
2023-05-20T15:28:35.020Z,3.50
2023-05-20T15:31:37.026Z,3.75
2023-05-20T15:34:38.926Z,3.58
2023-05-20T15:37:40.953Z,3.35
2023-05-20T15:40:43.839Z,3.20
2023-05-20T15:43:46.171Z,3.53
2023-05-20T15:46:48.160Z,3.58
2023-05-20T15:49:50.699Z,3.60
2023-05-20T15:52:53.586Z,3.17
2023-05-20T15:55:55.574Z,4.25
2023-05-20T15:58:57.690Z,3.45
2023-05-20T16:01:59.804Z,3.10
2023-05-20T16:05:02.324Z,3.40
2023-05-20T16:08:04.523Z,3.22
2023-05-20T16:11:07.693Z,3.83
2023-05-20T16:14:10.806Z,3.45
2023-05-20T16:17:13.100Z,3.28
2023-05-20T16:20:15.031Z,3.45
2023-05-20T16:23:17.090Z,3.53
2023-05-20T16:26:19.203Z,3.10
2023-05-20T16:29:21.658Z,3.40
2023-05-20T16:32:23.658Z,2.90
2023-05-20T16:35:25.609Z,4.05
2023-05-20T16:38:27.921Z,3.10
2023-05-20T16:41:29.968Z,3.33
2023-05-20T16:44:32.081Z,3.58
2023-05-20T16:47:34.538Z,4.07
2023-05-20T16:50:36.511Z,3.72
2023-05-20T16:53:38.411Z,3.60
2023-05-20T16:56:41.580Z,3.55
2023-05-20T16:59:43.645Z,3.28
2023-05-20T17:02:47.057Z,3.08
2023-05-20T17:05:49.035Z,3.67
2023-05-20T17:08:51.360Z,3.35
2023-05-20T17:11:54.800Z,3.40
2023-05-20T17:14:56.811Z,3.75
2023-05-20T17:17:58.941Z,3.55
2023-05-20T17:21:01.356Z,3.60
2023-05-20T17:24:06.036Z,3.40
2023-05-20T17:27:08.041Z,4.03
2023-05-20T17:30:10.441Z,3.38
2023-05-20T17:33:12.598Z,3.58
2023-05-20T17:36:16.477Z,3.47
2023-05-20T17:39:18.430Z,3.80
2023-05-20T17:42:20.373Z,3.45
2023-05-20T17:45:22.399Z,3.83
2023-05-20T17:48:25.062Z,3.65
2023-05-20T17:51:27.158Z,3.63
2023-05-20T17:54:29.285Z,3.80
2023-05-20T17:57:31.727Z,3.40
2023-05-20T18:00:43.051Z,3.40
2023-05-20T18:03:45.290Z,3.25
2023-05-20T18:06:47.429Z,3.35
2023-05-20T18:09:49.390Z,3.10
2023-05-20T18:12:53.109Z,3.45
2023-05-20T18:15:55.051Z,3.72
2023-05-20T18:18:57.606Z,4.07
2023-05-20T18:22:01.358Z,3.55
2023-05-20T18:25:04.497Z,3.72
2023-05-20T18:28:09.360Z,3.33
2023-05-20T18:31:12.176Z,4.57
2023-05-20T18:34:16.372Z,3.90
2023-05-20T18:37:18.416Z,4.20
2023-05-20T18:40:21.795Z,3.90
2023-05-20T18:43:24.341Z,3.60
2023-05-20T18:46:26.668Z,3.83
2023-05-20T18:49:29.904Z,3.35
2023-05-20T18:52:31.997Z,4.35
2023-05-20T18:55:34.122Z,4.20
2023-05-20T18:58:36.917Z,4.57
2023-05-20T19:01:39.672Z,4.30
2023-05-20T19:04:43.395Z,3.80
2023-05-20T19:07:46.303Z,4.10
2023-05-20T19:10:48.226Z,4.20
2023-05-20T19:13:52.714Z,3.87
2023-05-20T19:16:55.539Z,4.03
2023-05-20T19:19:57.706Z,3.60
2023-05-20T19:22:59.661Z,3.80
2023-05-20T19:26:01.956Z,3.80
2023-05-20T19:29:03.891Z,4.30
2023-05-20T19:32:06.581Z,4.20
2023-05-20T19:35:09.261Z,4.07
2023-05-20T19:38:12.120Z,4.50
2023-05-20T19:41:14.371Z,3.80
2023-05-20T19:44:17.196Z,4.30
2023-05-20T19:47:19.177Z,3.80
2023-05-20T19:50:21.219Z,4.23
2023-05-20T19:53:23.232Z,3.73
2023-05-20T19:56:25.157Z,4.37
2023-05-20T19:59:27.272Z,3.90
2023-05-20T20:02:29.241Z,3.90
2023-05-20T20:05:32.048Z,4.30
2023-05-20T20:08:34.170Z,3.80
2023-05-20T20:11:36.262Z,4.27
2023-05-20T20:14:39.246Z,3.83
2023-05-20T20:17:46.383Z,4.10
2023-05-20T20:20:48.907Z,3.83
2023-05-20T20:23:52.314Z,4.30
2023-05-20T20:26:55.546Z,3.97
2023-05-20T20:29:57.402Z,4.07
2023-05-20T20:32:59.416Z,3.80
2023-05-20T20:36:02.764Z,4.03
2023-05-20T20:39:06.015Z,4.20
2023-05-20T20:42:08.042Z,4.30
2023-05-20T20:45:12.559Z,4.30
2023-05-20T20:48:17.810Z,4.07
2023-05-20T20:51:20.363Z,4.67
2023-05-20T20:54:22.401Z,4.63
2023-05-20T20:57:25.547Z,4.57
2023-05-20T21:00:28.063Z,3.87
2023-05-20T21:03:31.369Z,4.27
2023-05-20T21:06:33.325Z,3.70
2023-05-20T21:09:35.312Z,3.90
2023-05-20T21:12:38.504Z,4.80
2023-05-20T21:15:42.183Z,4.77
2023-05-20T21:18:44.219Z,3.97
2023-05-20T21:21:46.147Z,3.93
2023-05-20T21:24:48.209Z,4.17
2023-05-20T21:27:50.111Z,4.27
2023-05-20T21:30:52.202Z,4.53
2023-05-20T21:33:54.236Z,4.07
2023-05-20T21:36:57.168Z,4.00
2023-05-20T21:39:59.205Z,4.57
2023-05-20T21:43:01.566Z,3.93
2023-05-20T21:46:12.393Z,4.43
2023-05-20T21:49:16.894Z,3.63
2023-05-20T21:52:18.928Z,4.13
2023-05-20T21:55:23.921Z,4.27
2023-05-20T21:58:26.457Z,4.10
2023-05-20T22:01:28.462Z,5.00
2023-05-20T22:04:30.776Z,4.67
2023-05-20T22:07:33.883Z,4.10
2023-05-20T22:10:36.946Z,4.37
2023-05-20T22:13:43.438Z,5.03
2023-05-20T22:16:49.006Z,4.23
2023-05-20T22:19:50.997Z,4.07
2023-05-20T22:22:53.008Z,4.20
2023-05-20T22:25:55.579Z,4.47
2023-05-20T22:28:57.539Z,4.20
2023-05-20T22:31:59.610Z,4.10
2023-05-20T22:35:01.923Z,4.03
2023-05-20T22:38:03.968Z,4.67
2023-05-20T22:41:06.223Z,4.57
2023-05-20T22:44:08.159Z,4.33
2023-05-20T22:47:10.810Z,4.17
2023-05-20T22:50:13.775Z,3.97
2023-05-20T22:53:17.009Z,4.10
2023-05-20T22:56:19.971Z,4.47
2023-05-20T22:59:22.486Z,4.90
2023-05-20T23:02:24.639Z,4.70
2023-05-20T23:05:26.682Z,5.00
2023-05-20T23:08:28.822Z,4.57
2023-05-20T23:11:30.834Z,4.30
2023-05-20T23:14:32.954Z,4.83
2023-05-20T23:17:35.534Z,4.80
2023-05-20T23:20:37.675Z,4.83
2023-05-20T23:23:39.535Z,4.60
2023-05-20T23:26:41.535Z,4.70
2023-05-20T23:29:43.447Z,4.60
2023-05-20T23:32:45.770Z,4.37
2023-05-20T23:35:47.754Z,5.23
2023-05-20T23:38:49.737Z,4.23
2023-05-20T23:41:51.624Z,4.57
2023-05-20T23:44:53.589Z,4.50
2023-05-20T23:47:55.961Z,4.63
2023-05-20T23:50:58.059Z,4.37
2023-05-20T23:53:59.955Z,5.40
2023-05-20T23:57:02.820Z,4.97
